Time;durP1;ratioP1;P1;durP2;ratioP2;P2;SDS_P1;SDS_P2;PMS_P1;PMS_P2;Temp;Humidity;BMP_temperature;BMP_pressure;BME280_temperature;BME280_humidity;BME280_pressure;Samples;Min_cycle;Max_cycle;Signal;HPM_P1;HPM_P2
2022/04/11 00:02:23;;;;;;;4.72;2.78;;;1.00;99.90;;;;;;5033681;28;20410;-77
2022/04/11 00:04:49;;;;;;;5.07;2.80;;;1.20;99.90;;;;;;5034003;28;20072;-77
2022/04/11 00:07:15;;;;;;;6.30;2.58;;;1.00;99.90;;;;;;5034266;28;20505;-77
2022/04/11 00:09:42;;;;;;;3.35;2.10;;;1.10;99.90;;;;;;5015874;28;20124;-77
2022/04/11 00:12:09;;;;;;;6.38;2.58;;;0.90;99.90;;;;;;5033895;28;20043;-77
2022/04/11 00:14:35;;;;;;;3.97;2.58;;;0.90;99.90;;;;;;5033947;28;20049;-77
2022/04/11 00:17:02;;;;;;;7.43;2.83;;;0.90;99.90;;;;;;5049593;28;20045;-77
2022/04/11 00:19:28;;;;;;;3.88;2.38;;;0.90;99.90;;;;;;5032610;28;20049;-78
2022/04/11 00:21:54;;;;;;;5.55;2.80;;;0.90;99.90;;;;;;5033256;28;20053;-77
2022/04/11 00:24:20;;;;;;;4.47;2.47;;;1.00;99.90;;;;;;5033791;28;20082;-77
2022/04/11 00:26:45;;;;;;;3.75;2.78;;;0.80;99.90;;;;;;5033520;28;20411;-77
2022/04/11 00:29:11;;;;;;;3.35;2.53;;;0.80;99.90;;;;;;5032087;28;20072;-78
2022/04/11 00:31:37;;;;;;;6.50;2.50;;;0.80;99.90;;;;;;5033321;28;20044;-78
2022/04/11 00:34:02;;;;;;;7.15;2.40;;;1.10;99.90;;;;;;5032855;28;20099;-77
2022/04/11 00:36:28;;;;;;;4.18;2.40;;;0.80;99.90;;;;;;5015415;28;20406;-77
2022/04/11 00:38:54;;;;;;;9.05;3.47;;;0.80;99.90;;;;;;5015494;28;20124;-77
2022/04/11 00:41:20;;;;;;;5.25;2.60;;;1.20;99.90;;;;;;5032756;28;20038;-77
2022/04/11 00:43:45;;;;;;;4.88;2.80;;;0.80;99.90;;;;;;5033152;28;20049;-78
2022/04/11 00:46:11;;;;;;;7.07;2.70;;;0.70;99.90;;;;;;5033076;28;20040;-77
2022/04/11 00:48:38;;;;;;;6.82;2.83;;;1.00;99.90;;;;;;5033063;28;20052;-77
2022/04/11 00:51:22;;;;;;;4.10;2.80;;;0.70;99.90;;;;;;5032649;28;20546;-78
2022/04/11 00:53:51;;;;;;;5.38;2.70;;;0.70;99.90;;;;;;5033227;28;20042;-78
2022/04/11 00:56:18;;;;;;;5.15;2.88;;;0.70;99.90;;;;;;5032949;28;20041;-77
2022/04/11 00:58:44;;;;;;;5.90;3.80;;;0.70;99.90;;;;;;5032491;28;20041;-77
2022/04/11 01:01:10;;;;;;;5.68;3.20;;;0.60;99.90;;;;;;5032770;28;20427;-77
2022/04/11 01:03:36;;;;;;;6.45;3.50;;;0.60;99.90;;;;;;5017554;28;20399;-77
2022/04/11 01:06:03;;;;;;;5.85;3.05;;;0.80;99.90;;;;;;5032732;28;20041;-77
2022/04/11 01:08:29;;;;;;;6.25;2.88;;;0.60;99.90;;;;;;5014874;28;20470;-78
2022/04/11 01:10:55;;;;;;;8.10;3.00;;;0.50;99.90;;;;;;5031401;28;20038;-77
2022/04/11 01:13:21;;;;;;;7.65;3.05;;;0.50;99.90;;;;;;5032489;28;20050;-77
2022/04/11 01:15:54;;;;;;;5.68;3.28;;;0.50;99.90;;;;;;5032442;28;20553;-78
2022/04/11 01:18:19;;;;;;;5.32;3.05;;;0.50;99.90;;;;;;5032159;28;20033;-78
2022/04/11 01:20:45;;;;;;;7.80;3.60;;;0.40;99.90;;;;;;5031466;28;20044;-78
2022/04/11 01:23:11;;;;;;;4.25;3.20;;;0.40;99.90;;;;;;5030615;28;20041;-77
2022/04/11 01:25:38;;;;;;;5.50;2.83;;;0.40;99.90;;;;;;5027005;28;20132;-78
2022/04/11 01:28:04;;;;;;;9.98;3.05;;;0.40;99.90;;;;;;5023785;28;20049;-78
2022/04/11 01:30:30;;;;;;;4.80;3.08;;;0.40;99.90;;;;;;5032150;28;20057;-77
2022/04/11 01:32:55;;;;;;;4.47;3.03;;;0.40;99.90;;;;;;5030538;28;20182;-78
2022/04/11 01:35:24;;;;;;;6.78;3.13;;;0.40;99.90;;;;;;5029305;28;20041;-75
2022/04/11 01:37:50;;;;;;;6.22;2.85;;;0.40;99.90;;;;;;5026363;28;20124;-77
2022/04/11 01:40:16;;;;;;;9.25;3.58;;;0.40;99.90;;;;;;5030351;28;20029;-77
2022/04/11 01:42:45;;;;;;;5.75;2.90;;;0.50;99.90;;;;;;5030375;28;20046;-77
2022/04/11 01:45:11;;;;;;;7.28;3.15;;;0.90;99.90;;;;;;5028415;28;20045;-77
2022/04/11 01:47:41;;;;;;;4.75;3.13;;;0.70;99.90;;;;;;5030084;28;20048;-77
2022/04/11 01:50:10;;;;;;;6.35;2.80;;;0.50;99.90;;;;;;5030506;28;20514;-77
2022/04/11 01:52:36;;;;;;;6.30;2.90;;;0.50;99.90;;;;;;5030309;28;20127;-77
2022/04/11 01:55:02;;;;;;;8.13;3.30;;;0.40;99.90;;;;;;5029456;28;20418;-77
2022/04/11 01:57:29;;;;;;;5.32;3.22;;;0.40;99.90;;;;;;5029202;28;20414;-77
2022/04/11 01:59:55;;;;;;;6.32;3.10;;;0.40;99.90;;;;;;5028824;28;20431;-77
2022/04/11 02:02:20;;;;;;;8.18;3.90;;;0.40;99.90;;;;;;5029232;28;20031;-77
2022/04/11 02:04:46;;;;;;;7.22;2.88;;;0.40;99.90;;;;;;5012393;28;20034;-77
2022/04/11 02:07:12;;;;;;;4.38;3.20;;;0.30;99.90;;;;;;5030358;28;20041;-77
2022/04/11 02:09:37;;;;;;;6.63;3.08;;;0.60;99.90;;;;;;5030348;28;20041;-77
2022/04/11 02:12:04;;;;;;;6.72;3.10;;;0.30;99.90;;;;;;5029889;28;20128;-77
2022/04/11 02:14:29;;;;;;;6.70;3.22;;;0.30;99.90;;;;;;5027915;28;20041;-77
2022/04/11 02:16:55;;;;;;;6.90;3.20;;;0.30;99.90;;;;;;5012106;28;20052;-77
2022/04/11 02:19:21;;;;;;;4.53;3.10;;;0.30;99.90;;;;;;5028655;28;20041;-77
2022/04/11 02:21:46;;;;;;;6.70;3.08;;;0.60;99.90;;;;;;5027237;28;20087;-77
2022/04/11 02:24:12;;;;;;;6.15;3.28;;;0.30;99.90;;;;;;5029892;28;20044;-77
2022/04/11 02:26:38;;;;;;;6.05;2.95;;;0.30;99.90;;;;;;5028834;28;20038;-77
2022/04/11 02:29:04;;;;;;;6.18;3.05;;;0.40;99.90;;;;;;5029250;28;20388;-77
2022/04/11 02:31:30;;;;;;;3.70;2.83;;;0.40;99.90;;;;;;5030985;28;20037;-77
2022/04/11 02:33:55;;;;;;;5.18;2.58;;;0.40;99.90;;;;;;5031282;28;20029;-77
2022/04/11 02:36:21;;;;;;;9.45;3.63;;;0.70;99.90;;;;;;5028539;28;20642;-77
2022/04/11 02:38:47;;;;;;;5.63;3.15;;;0.50;99.90;;;;;;5029569;28;20073;-77
2022/04/11 02:41:12;;;;;;;7.13;3.30;;;0.80;99.90;;;;;;5029518;28;20029;-77
2022/04/11 02:43:38;;;;;;;4.18;2.63;;;0.90;99.90;;;;;;5027564;28;20438;-77
2022/04/11 02:46:04;;;;;;;6.13;3.63;;;0.50;99.90;;;;;;5029526;28;20075;-77
2022/04/11 02:48:29;;;;;;;6.53;3.40;;;0.50;99.90;;;;;;5029249;28;20037;-77
2022/04/11 02:50:55;;;;;;;4.53;3.20;;;0.50;99.90;;;;;;5028493;28;20460;-77
2022/04/11 02:53:21;;;;;;;6.18;2.92;;;1.50;99.90;;;;;;5027980;28;20103;-77
2022/04/11 02:55:46;;;;;;;6.80;3.40;;;0.40;99.90;;;;;;5011436;28;20045;-77
2022/04/11 02:58:12;;;;;;;7.63;3.13;;;0.80;99.90;;;;;;5028247;28;20064;-77
2022/04/11 03:00:38;;;;;;;6.00;3.40;;;0.50;99.90;;;;;;5028303;28;20498;-77
2022/04/11 03:03:04;;;;;;;4.13;3.20;;;0.50;99.90;;;;;;5029154;28;20518;-77
2022/04/11 03:05:30;;;;;;;6.80;3.60;;;0.50;99.90;;;;;;5029479;28;20037;-77
2022/04/11 03:07:56;;;;;;;5.05;3.35;;;0.50;99.90;;;;;;5027850;28;20041;-77
2022/04/11 03:10:22;;;;;;;5.07;3.40;;;0.40;99.90;;;;;;5028926;28;20460;-77
2022/04/11 03:12:47;;;;;;;7.07;3.22;;;0.40;99.90;;;;;;5029323;28;20115;-77
2022/04/11 03:15:13;;;;;;;7.35;3.80;;;0.40;99.90;;;;;;5027939;28;20080;-77
2022/04/11 03:17:39;;;;;;;4.63;2.90;;;0.40;99.90;;;;;;5028955;28;20037;-77
2022/04/11 03:20:05;;;;;;;7.78;3.25;;;0.40;99.90;;;;;;5011697;28;20506;-77
2022/04/11 03:22:30;;;;;;;5.10;2.60;;;0.40;99.90;;;;;;5027172;28;20041;-77
2022/04/11 03:24:56;;;;;;;3.88;2.97;;;0.40;99.90;;;;;;5029007;28;20033;-77
2022/04/11 03:27:22;;;;;;;4.13;2.70;;;0.40;99.90;;;;;;5028948;28;20502;-77
2022/04/11 03:29:47;;;;;;;7.50;3.33;;;0.50;99.90;;;;;;5028413;28;20072;-77
2022/04/11 03:32:13;;;;;;;4.10;3.10;;;0.30;99.90;;;;;;5028868;28;20503;-77
2022/04/11 03:34:39;;;;;;;5.13;2.88;;;0.30;99.90;;;;;;5027925;28;20128;-77
2022/04/11 03:37:05;;;;;;;3.85;3.00;;;0.50;99.90;;;;;;5027798;28;20120;-77
2022/04/11 03:39:30;;;;;;;6.95;2.83;;;0.30;99.90;;;;;;5028374;28;20486;-77
2022/04/11 03:41:56;;;;;;;7.32;3.05;;;0.60;99.90;;;;;;5028748;28;20498;-77
2022/04/11 03:44:22;;;;;;;5.22;2.70;;;0.20;99.90;;;;;;5028631;28;20042;-77
2022/04/11 03:46:47;;;;;;;6.32;3.00;;;0.20;99.90;;;;;;5028430;28;20045;-77
2022/04/11 03:49:13;;;;;;;7.57;3.53;;;0.20;99.90;;;;;;5029308;28;20040;-77
2022/04/11 03:51:39;;;;;;;5.70;3.33;;;0.20;99.90;;;;;;5026992;28;20037;-77
2022/04/11 03:54:04;;;;;;;6.18;3.80;;;0.20;99.90;;;;;;5028436;28;20081;-77
2022/04/11 03:56:30;;;;;;;8.70;3.20;;;0.10;99.90;;;;;;5026811;28;20465;-77
2022/04/11 03:58:56;;;;;;;5.95;2.50;;;0.10;99.90;;;;;;5028429;28;20053;-77
2022/04/11 04:01:22;;;;;;;5.45;2.50;;;1.20;99.90;;;;;;5028005;28;20064;-77
2022/04/11 04:03:47;;;;;;;5.30;2.88;;;0.10;99.90;;;;;;5010124;28;20445;-77
2022/04/11 04:06:13;;;;;;;4.95;2.97;;;0.20;99.90;;;;;;5028016;28;20042;-77
2022/04/11 04:08:39;;;;;;;4.72;3.00;;;0.20;99.90;;;;;;5028362;28;20037;-77
2022/04/11 04:11:04;;;;;;;4.32;2.55;;;0.20;99.90;;;;;;5027950;28;20043;-77
2022/04/11 04:13:33;;;;;;;4.88;2.97;;;0.50;99.90;;;;;;5026033;28;20041;-78
2022/04/11 04:15:58;;;;;;;5.88;3.15;;;0.30;99.90;;;;;;5027775;28;20080;-77
2022/04/11 04:18:24;;;;;;;4.68;2.92;;;0.40;99.90;;;;;;5028912;28;20060;-77
2022/04/11 04:20:50;;;;;;;5.35;3.50;;;1.00;99.90;;;;;;5027882;28;20037;-77
2022/04/11 04:23:17;;;;;;;4.20;2.83;;;0.40;99.90;;;;;;5028084;28;20045;-78
2022/04/11 04:25:42;;;;;;;6.43;3.90;;;0.50;99.90;;;;;;5026975;28;20053;-77
2022/04/11 04:28:08;;;;;;;6.13;3.10;;;0.50;99.90;;;;;;5026617;28;20052;-77
2022/04/11 04:30:34;;;;;;;4.57;3.72;;;0.60;99.90;;;;;;5010639;28;20319;-77
2022/04/11 04:32:59;;;;;;;6.88;3.72;;;0.60;99.90;;;;;;5028139;28;20037;-77
2022/04/11 04:35:26;;;;;;;4.85;3.17;;;0.60;99.90;;;;;;5027743;28;20487;-77
2022/04/11 04:37:52;;;;;;;6.45;3.50;;;0.80;99.90;;;;;;5028221;28;20122;-77
2022/04/11 04:40:19;;;;;;;5.05;3.53;;;0.90;99.90;;;;;;5024593;28;20045;-77
2022/04/11 04:42:44;;;;;;;6.47;3.60;;;0.70;99.90;;;;;;5026869;28;20037;-77
2022/04/11 04:45:10;;;;;;;9.32;4.38;;;0.60;99.90;;;;;;5028200;28;20514;-77
2022/04/11 04:47:36;;;;;;;5.47;3.80;;;0.70;99.90;;;;;;5030591;28;20540;-77
2022/04/11 04:50:02;;;;;;;5.82;4.25;;;0.70;99.90;;;;;;5031204;28;20044;-77
2022/04/11 04:52:28;;;;;;;8.30;4.10;;;0.70;99.90;;;;;;5031192;28;20034;-77
2022/04/11 04:54:54;;;;;;;6.90;4.05;;;0.70;99.90;;;;;;5031051;28;20106;-77
2022/04/11 04:57:20;;;;;;;9.93;3.75;;;0.70;99.90;;;;;;5029342;28;20073;-77
2022/04/11 04:59:46;;;;;;;6.22;4.13;;;0.80;99.90;;;;;;5029770;28;20053;-77
2022/04/11 05:02:12;;;;;;;8.05;4.50;;;0.70;99.90;;;;;;5031096;28;20079;-77
2022/04/11 05:04:38;;;;;;;5.80;3.92;;;0.80;99.90;;;;;;5030797;28;20049;-77
2022/04/11 05:07:04;;;;;;;8.13;4.10;;;0.80;99.90;;;;;;5030913;28;20053;-77
2022/04/11 05:09:29;;;;;;;6.82;4.25;;;1.10;99.90;;;;;;5030379;28;20044;-77
2022/04/11 05:11:55;;;;;;;8.25;4.20;;;0.90;99.90;;;;;;5030486;28;20553;-77
2022/04/11 05:14:21;;;;;;;7.93;4.63;;;0.90;99.90;;;;;;5031366;28;20080;-77
2022/04/11 05:16:47;;;;;;;7.55;4.72;;;1.00;99.90;;;;;;5029165;28;20052;-77
2022/04/11 05:19:12;;;;;;;9.73;4.53;;;1.30;99.90;;;;;;5031069;28;20041;-77
2022/04/11 05:21:38;;;;;;;7.38;4.40;;;1.00;99.90;;;;;;5029079;28;20103;-77
2022/04/11 05:24:04;;;;;;;8.32;4.43;;;1.00;99.90;;;;;;5026616;28;20163;-77
2022/04/11 05:26:30;;;;;;;7.82;4.53;;;1.00;99.90;;;;;;5030625;28;20034;-77
2022/04/11 05:28:56;;;;;;;7.55;3.97;;;1.10;99.90;;;;;;5029261;28;20046;-77
2022/04/11 05:31:21;;;;;;;10.10;5.13;;;1.10;99.90;;;;;;5030553;28;20039;-77
2022/04/11 05:33:47;;;;;;;7.22;4.65;;;1.10;99.90;;;;;;5031615;28;20037;-77
2022/04/11 05:36:14;;;;;;;8.27;4.88;;;1.30;99.90;;;;;;5030384;28;20422;-77
2022/04/11 05:38:40;;;;;;;8.52;4.60;;;1.20;99.90;;;;;;5031891;28;20033;-77
2022/04/11 05:41:06;;;;;;;6.85;4.78;;;1.20;99.90;;;;;;5031930;28;20555;-77
2022/04/11 05:43:32;;;;;;;7.97;5.65;;;1.30;99.90;;;;;;5031704;28;20114;-77
2022/04/11 05:45:59;;;;;;;10.35;5.15;;;1.30;99.90;;;;;;5031623;28;20075;-77
2022/04/11 05:48:25;;;;;;;9.20;5.47;;;1.40;99.90;;;;;;5031467;28;20227;-77
2022/04/11 05:50:51;;;;;;;5.88;4.65;;;1.40;99.90;;;;;;5032231;28;20052;-77
2022/04/11 05:53:18;;;;;;;7.75;5.18;;;1.50;99.90;;;;;;5031534;28;20115;-77
2022/04/11 05:55:44;;;;;;;6.15;5.13;;;1.60;99.90;;;;;;5031691;28;20037;-77
2022/04/11 05:58:10;;;;;;;11.20;5.90;;;1.60;99.90;;;;;;5029691;28;20061;-77
2022/04/11 06:00:35;;;;;;;7.65;5.45;;;1.70;99.90;;;;;;5029951;28;20095;-77
2022/04/11 06:03:01;;;;;;;9.07;6.25;;;1.70;99.90;;;;;;5031068;28;20045;-77
2022/04/11 06:05:27;;;;;;;7.53;5.32;;;1.80;99.90;;;;;;5029624;28;20441;-77
2022/04/11 06:07:53;;;;;;;10.77;5.65;;;1.80;99.90;;;;;;5031133;28;20037;-78
2022/04/11 06:10:18;;;;;;;7.15;5.50;;;2.00;99.90;;;;;;5031415;28;20036;-77
2022/04/11 06:12:44;;;;;;;12.52;5.60;;;1.90;99.90;;;;;;5022280;28;20041;-77
2022/04/11 06:15:11;;;;;;;6.50;5.72;;;1.90;99.90;;;;;;5025151;28;20230;-77
2022/04/11 06:17:37;;;;;;;9.27;5.72;;;2.00;99.90;;;;;;5029405;28;20510;-77
2022/04/11 06:20:04;;;;;;;8.63;5.78;;;2.00;99.90;;;;;;5030925;28;20127;-77
2022/04/11 06:22:29;;;;;;;10.57;6.35;;;2.00;99.90;;;;;;5030458;28;20388;-77
2022/04/11 06:25:01;;;;;;;7.82;5.68;;;2.10;99.90;;;;;;5029708;28;20044;-77
2022/04/11 06:27:27;;;;;;;9.23;5.90;;;2.10;99.90;;;;;;5029117;28;20037;-77
2022/04/11 06:29:56;;;;;;;7.00;5.43;;;2.20;99.90;;;;;;5029491;28;20041;-77
2022/04/11 06:32:30;;;;;;;7.80;5.65;;;2.20;99.90;;;;;;5013022;28;20075;-77
2022/04/11 06:34:56;;;;;;;8.00;5.40;;;2.20;99.90;;;;;;5030849;28;20045;-77
2022/04/11 06:37:23;;;;;;;8.55;5.95;;;2.30;99.90;;;;;;5030108;28;20399;-77
2022/04/11 06:39:53;;;;;;;7.90;6.07;;;2.40;99.90;;;;;;5031079;28;20072;-77
2022/04/11 06:42:20;;;;;;;6.97;5.65;;;2.50;99.90;;;;;;5029218;28;20369;-77
2022/04/11 06:44:46;;;;;;;9.30;6.18;;;2.60;99.90;;;;;;5030372;28;20653;-77
2022/04/11 06:47:12;;;;;;;9.63;6.30;;;2.90;99.90;;;;;;5030637;28;20116;-77
2022/04/11 06:49:38;;;;;;;8.68;5.47;;;2.90;99.90;;;;;;5031001;28;20399;-77
2022/04/11 06:52:05;;;;;;;8.40;6.15;;;3.10;99.90;;;;;;5030407;28;20407;-77
2022/04/11 06:54:31;;;;;;;6.65;5.97;;;3.20;99.90;;;;;;5029194;28;20051;-77
2022/04/11 06:56:58;;;;;;;9.57;6.35;;;3.30;99.90;;;;;;5009286;28;20054;-77
2022/04/11 06:59:24;;;;;;;9.13;6.13;;;3.30;99.90;;;;;;5028407;28;20119;-77
2022/04/11 07:01:53;;;;;;;8.18;6.43;;;3.40;99.90;;;;;;5029199;28;20037;-77
2022/04/11 07:04:20;;;;;;;12.05;6.45;;;3.40;99.90;;;;;;5030143;28;20034;-77
2022/04/11 07:06:46;;;;;;;12.45;6.35;;;3.50;99.90;;;;;;5029062;28;20517;-77
2022/04/11 07:09:12;;;;;;;10.10;6.30;;;3.50;99.90;;;;;;5029045;28;20029;-77
2022/04/11 07:11:37;;;;;;;11.65;6.20;;;3.60;99.90;;;;;;5028582;28;20037;-77
2022/04/11 07:14:05;;;;;;;8.75;6.88;;;3.60;99.90;;;;;;5029589;28;20196;-77
2022/04/11 07:16:31;;;;;;;9.02;5.88;;;3.70;99.90;;;;;;5031859;28;20037;-77
2022/04/11 07:18:56;;;;;;;11.30;6.32;;;3.80;99.90;;;;;;5028257;28;20045;-77
2022/04/11 07:21:22;;;;;;;11.73;7.38;;;3.80;99.90;;;;;;5029769;28;20037;-77
2022/04/11 07:23:48;;;;;;;12.23;6.78;;;3.80;99.90;;;;;;5019053;28;20037;-77
2022/04/11 07:26:14;;;;;;;11.73;7.28;;;3.90;99.90;;;;;;5029696;28;20495;-76
2022/04/11 07:28:40;;;;;;;12.52;7.25;;;4.00;99.90;;;;;;5028883;28;20037;-77
2022/04/11 07:31:06;;;;;;;9.30;7.53;;;4.10;99.90;;;;;;5045281;28;20041;-77
2022/04/11 07:33:32;;;;;;;9.98;7.20;;;4.20;99.90;;;;;;5028358;28;20041;-77
2022/04/11 07:35:57;;;;;;;8.95;6.97;;;4.20;99.90;;;;;;5028233;28;20048;-77
2022/04/11 07:38:23;;;;;;;11.68;7.60;;;4.30;99.90;;;;;;5029473;28;20084;-77
2022/04/11 07:40:49;;;;;;;9.15;6.88;;;4.40;99.90;;;;;;5029810;28;20064;-77
2022/04/11 07:43:15;;;;;;;10.85;7.13;;;4.50;99.90;;;;;;5029291;28;20072;-77
2022/04/11 07:45:42;;;;;;;10.60;7.35;;;4.60;99.90;;;;;;5030011;28;20483;-77
2022/04/11 07:48:08;;;;;;;11.98;6.20;;;4.70;99.90;;;;;;5028879;28;20080;-77
2022/04/11 07:50:41;;;;;;;10.77;7.07;;;4.80;99.90;;;;;;5028148;28;20073;-77
2022/04/11 07:53:07;;;;;;;11.50;6.95;;;5.00;99.90;;;;;;5028462;28;20128;-77
2022/04/11 07:55:33;;;;;;;9.52;6.70;;;5.10;99.90;;;;;;5029933;28;20485;-77
2022/04/11 07:58:00;;;;;;;12.15;7.53;;;5.20;99.90;;;;;;5029400;28;20449;-77
2022/04/11 08:00:25;;;;;;;11.52;7.15;;;5.30;99.90;;;;;;5029125;28;20041;-77
2022/04/11 08:02:52;;;;;;;10.40;7.35;;;5.60;99.90;;;;;;5027921;28;20053;-77
2022/04/11 08:05:19;;;;;;;10.00;6.57;;;5.60;99.90;;;;;;5025444;28;20037;-77
2022/04/11 08:07:49;;;;;;;10.80;6.53;;;5.80;99.90;;;;;;5029081;28;20103;-77
2022/04/11 08:10:16;;;;;;;10.95;7.18;;;5.90;99.90;;;;;;5029468;28;20045;-77
2022/04/11 08:12:59;;;;;;;9.15;7.50;;;6.10;99.90;;;;;;5028305;28;20057;-77
2022/04/11 08:15:25;;;;;;;;;;;6.30;99.90;;;;;;5011582;28;20045;-77
2022/04/11 08:17:55;;;;;;;8.63;6.82;;;6.50;99.90;;;;;;5029809;28;20016;-77
2022/04/11 08:20:21;;;;;;;11.52;6.95;;;6.70;99.90;;;;;;5030125;28;20038;-77
2022/04/11 08:22:47;;;;;;;10.02;7.32;;;6.90;99.90;;;;;;5014619;28;20495;-77
2022/04/11 08:25:14;;;;;;;10.77;6.90;;;7.20;99.90;;;;;;5032129;28;20033;-77
2022/04/11 08:27:40;;;;;;;10.00;7.18;;;7.40;99.90;;;;;;5031598;28;20406;-77
2022/04/11 08:30:09;;;;;;;13.07;7.28;;;7.70;99.90;;;;;;5027914;28;20117;-76
2022/04/11 08:32:42;;;;;;;10.65;6.95;;;8.10;99.90;;;;;;5031309;28;20042;-77
2022/04/11 08:35:09;;;;;;;11.93;7.07;;;8.50;99.90;;;;;;5023604;28;20052;-77
2022/04/11 08:37:40;;;;;;;11.73;6.85;;;9.00;99.90;;;;;;5030461;28;20025;-77
2022/04/11 08:40:26;;;;;;;11.02;6.53;;;9.10;99.90;;;;;;5029740;28;20749;-77
2022/04/11 08:42:52;;;;;;;10.63;6.78;;;9.30;99.90;;;;;;5029239;28;20053;-78
2022/04/11 08:45:20;;;;;;;10.15;6.32;;;9.70;99.90;;;;;;5030469;28;20048;-77
2022/04/11 08:47:48;;;;;;;11.23;6.72;;;10.20;99.90;;;;;;5030479;28;20249;-77
2022/04/11 08:50:14;;;;;;;11.43;6.22;;;10.60;99.90;;;;;;5012038;28;20096;-77
2022/04/11 08:52:41;;;;;;;9.10;5.88;;;11.70;99.90;;;;;;5030624;28;20491;-77
2022/04/11 08:55:07;;;;;;;10.93;5.55;;;11.50;99.90;;;;;;5029801;28;20162;-77
2022/04/11 08:57:36;;;;;;;9.93;5.80;;;11.60;99.90;;;;;;5030533;28;20140;-77
2022/04/11 09:00:11;;;;;;;9.65;6.28;;;11.70;99.90;;;;;;5045527;28;20373;-77
2022/04/11 09:02:37;;;;;;;10.43;5.28;;;12.50;99.90;;;;;;5027545;28;20088;-77
2022/04/11 09:05:04;;;;;;;8.13;5.45;;;13.10;99.90;;;;;;5028899;28;20057;-77
2022/04/11 09:07:52;;;;;;;8.57;5.28;;;14.00;99.90;;;;;;5029733;28;20643;-77
2022/04/11 09:10:22;;;;;;;9.48;4.55;;;14.20;97.00;;;;;;5030756;28;20033;-77
2022/04/11 09:12:50;;;;;;;7.10;4.85;;;14.30;97.30;;;;;;5029797;28;20044;-75
2022/04/11 09:15:17;;;;;;;5.30;4.55;;;14.40;98.10;;;;;;5028962;28;20126;-75
2022/04/11 09:17:44;;;;;;;8.38;4.53;;;14.80;98.20;;;;;;5031167;28;20052;-75
2022/04/11 09:20:13;;;;;;;6.32;4.47;;;15.20;97.40;;;;;;5029549;28;20701;-76
2022/04/11 09:22:39;;;;;;;7.82;4.55;;;15.50;96.40;;;;;;5028895;28;20033;-75
2022/04/11 09:25:31;;;;;;;6.93;3.97;;;15.90;96.00;;;;;;5030755;28;20045;-75
2022/04/11 09:28:17;;;;;;;5.90;3.38;;;15.90;87.70;;;;;;5027189;28;20085;-75
2022/04/11 09:30:43;;;;;;;5.55;3.70;;;16.20;90.30;;;;;;5027972;28;20049;-75
2022/04/11 09:33:10;;;;;;;6.30;4.00;;;16.50;92.30;;;;;;5029228;28;20148;-75
2022/04/11 09:35:41;;;;;;;5.80;4.00;;;16.60;90.00;;;;;;5030578;28;20399;-75
2022/04/11 09:38:08;;;;;;;5.55;4.28;;;16.80;88.40;;;;;;5029612;28;20518;-75
2022/04/11 09:40:43;;;;;;;5.30;3.67;;;17.20;88.90;;;;;;5030608;28;20522;-75
2022/04/11 09:43:10;;;;;;;7.50;4.05;;;17.20;86.00;;;;;;5030348;28;20092;-75
2022/04/11 09:45:47;;;;;;;8.98;4.03;;;16.90;83.20;;;;;;5030192;28;20101;-75
2022/04/11 09:48:30;;;;;;;7.45;4.38;;;17.20;80.10;;;;;;5029655;28;20398;-75
2022/04/11 09:50:59;;;;;;;5.72;3.30;;;17.40;79.10;;;;;;5044515;28;20081;-75
2022/04/11 09:53:32;;;;;;;4.78;3.17;;;17.00;79.80;;;;;;5030633;28;20052;-75
2022/04/11 09:56:04;;;;;;;7.00;4.18;;;17.40;75.90;;;;;;5029000;28;20036;-75
2022/04/11 09:58:32;;;;;;;5.40;3.33;;;17.60;78.00;;;;;;5029440;28;20057;-75
2022/04/11 10:01:01;;;;;;;6.95;3.45;;;17.40;77.10;;;;;;5027926;28;20091;-76
2022/04/11 10:03:27;;;;;;;6.53;3.70;;;17.50;74.10;;;;;;5027821;28;20044;-73
2022/04/11 10:05:54;;;;;;;6.18;4.00;;;17.30;74.40;;;;;;5028522;28;20109;-71
2022/04/11 10:08:23;;;;;;;7.05;3.55;;;17.10;73.80;;;;;;5026512;28;20037;-75
2022/04/11 10:10:50;;;;;;;7.30;4.15;;;16.90;72.20;;;;;;5028615;28;20038;-75
2022/04/11 10:13:16;;;;;;;6.40;4.03;;;16.70;71.70;;;;;;5029367;28;20480;-73
2022/04/11 10:15:46;;;;;;;9.20;4.15;;;16.50;72.50;;;;;;5028378;28;20091;-73
2022/04/11 10:18:15;;;;;;;6.82;4.10;;;16.30;71.60;;;;;;5028628;28;20491;-73
2022/04/11 10:20:49;;;;;;;7.00;4.53;;;16.00;70.40;;;;;;5028802;28;20050;-73
2022/04/11 10:23:37;;;;;;;7.60;4.30;;;16.20;72.10;;;;;;5028921;28;20506;-73
2022/04/11 10:26:14;;;;;;;8.40;4.30;;;16.00;71.30;;;;;;5027258;28;20049;-73
2022/04/11 10:28:47;;;;;;;8.43;5.25;;;16.10;69.30;;;;;;5027604;28;20039;-73
2022/04/11 10:31:15;;;;;;;7.30;4.90;;;16.20;70.40;;;;;;5026771;28;20124;-73
2022/04/11 10:33:48;;;;;;;6.78;4.88;;;16.50;72.00;;;;;;5029028;28;20148;-73
2022/04/11 10:36:36;;;;;;;7.68;4.70;;;16.30;70.70;;;;;;5028242;28;20072;-73
2022/04/11 10:39:14;;;;;;;8.73;4.88;;;16.80;69.40;;;;;;5027786;28;20041;-74
2022/04/11 10:41:58;;;;;;;9.88;5.18;;;17.00;67.30;;;;;;5027491;28;20469;-73
2022/04/11 10:44:39;;;;;;;10.05;5.70;;;17.20;68.20;;;;;;5028390;28;20334;-73
2022/04/11 10:47:08;;;;;;;9.07;5.45;;;17.10;68.40;;;;;;5027037;28;20086;-73
2022/04/11 10:49:49;;;;;;;7.57;5.18;;;17.30;67.20;;;;;;5028858;28;20049;-73
2022/04/11 10:52:31;;;;;;;7.90;5.07;;;16.90;64.30;;;;;;5011081;28;20044;-73
2022/04/11 10:55:17;;;;;;;9.05;5.28;;;17.30;66.30;;;;;;5028944;28;20034;-73
2022/04/11 10:57:48;;;;;;;7.05;5.38;;;17.60;66.70;;;;;;5026106;28;20057;-73
2022/04/11 11:00:31;;;;;;;7.07;5.47;;;17.70;67.60;;;;;;5028581;28;20041;-73
2022/04/11 11:03:00;;;;;;;9.68;6.03;;;17.60;65.80;;;;;;5026667;28;20041;-73
2022/04/11 11:05:38;;;;;;;8.32;5.68;;;17.80;65.30;;;;;;5028364;28;20255;-73
2022/04/11 11:08:09;;;;;;;9.50;5.93;;;17.70;64.90;;;;;;5028298;28;20033;-73
2022/04/11 11:10:55;;;;;;;9.45;6.03;;;17.70;63.50;;;;;;5028171;28;20394;-73
2022/04/11 11:13:41;;;;;;;9.85;5.70;;;17.80;62.30;;;;;;5028758;28;20057;-73
2022/04/11 11:16:06;;;;;;;8.82;5.75;;;18.00;65.20;;;;;;5028175;28;20056;-73
2022/04/11 11:21:17;;;;;;;12.25;6.53;;;17.70;63.50;;;;;;5028869;28;20068;-75
2022/04/11 11:24:02;;;;;;;9.05;6.03;;;17.50;64.80;;;;;;5022961;28;20936;-73
2022/04/11 11:26:48;;;;;;;8.63;6.13;;;17.30;63.00;;;;;;5019035;28;20125;-73
2022/04/11 11:29:21;;;;;;;8.90;6.43;;;17.00;65.00;;;;;;5003180;28;20503;-74
2022/04/11 11:31:52;;;;;;;7.53;5.60;;;16.70;64.50;;;;;;5019742;28;20716;-74
2022/04/11 11:34:21;;;;;;;9.00;6.18;;;16.70;66.80;;;;;;5021149;28;20064;-74
2022/04/11 11:36:47;;;;;;;8.52;6.60;;;16.60;64.80;;;;;;5002773;28;20049;-73
2022/04/11 11:39:21;;;;;;;10.77;6.40;;;16.30;65.20;;;;;;5020230;28;20049;-73
2022/04/11 11:41:48;;;;;;;10.43;5.78;;;16.30;67.00;;;;;;5020835;28;20110;-73
2022/04/11 11:44:15;;;;;;;11.07;6.32;;;16.30;67.60;;;;;;5021042;28;20076;-74
2022/04/11 11:47:02;;;;;;;8.82;6.95;;;16.30;67.00;;;;;;5021063;28;20411;-74
2022/04/11 11:49:37;;;;;;;8.32;6.13;;;16.20;66.10;;;;;;5020946;28;20594;-73
2022/04/11 11:52:03;;;;;;;8.32;6.20;;;16.20;67.20;;;;;;5018054;28;20049;-73
2022/04/11 11:54:34;;;;;;;9.32;6.68;;;16.40;67.60;;;;;;5018354;28;20562;-73
2022/04/11 11:57:00;;;;;;;9.75;6.25;;;16.40;65.50;;;;;;5005761;28;20448;-73
2022/04/11 11:59:27;;;;;;;10.48;7.25;;;16.20;65.30;;;;;;5023178;28;20832;-73
2022/04/11 12:04:39;;;;;;;10.23;6.80;;;16.40;65.30;;;;;;5023295;28;20057;-73
2022/04/11 12:07:08;;;;;;;11.77;6.65;;;16.40;65.70;;;;;;5023169;28;20048;-73
2022/04/11 12:09:38;;;;;;;8.25;6.80;;;16.40;66.40;;;;;;5024134;28;20037;-73
2022/04/11 12:12:05;;;;;;;9.43;6.22;;;16.60;65.20;;;;;;5022913;28;20092;-73
2022/04/11 12:15:03;;;;;;;9.40;6.60;;;16.60;66.70;;;;;;5025497;28;20156;-73
2022/04/11 12:17:30;;;;;;;9.25;6.25;;;16.80;64.50;;;;;;5024103;28;20053;-74
2022/04/11 12:20:07;;;;;;;9.30;6.78;;;16.80;65.90;;;;;;5024740;28;20037;-73
2022/04/11 12:22:33;;;;;;;10.48;6.82;;;16.90;64.80;;;;;;5022381;28;20443;-73
2022/04/11 12:24:59;;;;;;;10.45;6.93;;;16.80;63.70;;;;;;5024147;28;20052;-74
2022/04/11 12:27:24;;;;;;;10.38;6.90;;;16.90;64.80;;;;;;5024378;28;20052;-73
2022/04/11 12:29:50;;;;;;;10.35;7.13;;;16.80;66.60;;;;;;5022840;28;20064;-74
2022/04/11 12:32:16;;;;;;;9.85;7.38;;;16.80;65.00;;;;;;5024416;28;20073;-73
2022/04/11 12:34:43;;;;;;;11.80;7.25;;;16.70;65.00;;;;;;5023317;28;20053;-74
2022/04/11 12:37:13;;;;;;;9.77;7.20;;;16.60;65.00;;;;;;5024495;28;20081;-73
2022/04/11 12:40:09;;;;;;;9.20;6.80;;;16.70;64.00;;;;;;5023689;28;20095;-74
2022/04/11 12:42:36;;;;;;;8.43;6.40;;;16.80;64.20;;;;;;5037251;28;20053;-74
2022/04/11 12:45:04;;;;;;;9.18;6.50;;;16.80;64.80;;;;;;5020783;28;20050;-74
2022/04/11 12:47:30;;;;;;;9.23;6.75;;;17.00;62.70;;;;;;5007921;28;20123;-74
2022/04/11 12:49:57;;;;;;;8.15;6.40;;;16.80;64.30;;;;;;5006876;28;20073;-74
2022/04/11 12:52:27;;;;;;;10.07;7.43;;;16.90;64.10;;;;;;5029647;28;20038;-73
2022/04/11 12:55:03;;;;;;;10.90;6.38;;;16.90;64.60;;;;;;5037260;28;20046;-73
2022/04/11 12:57:32;;;;;;;9.48;7.25;;;16.80;63.30;;;;;;5025166;28;20060;-74
2022/04/11 13:00:15;;;;;;;8.23;7.00;;;16.90;63.90;;;;;;5024504;28;20122;-73
2022/04/11 13:02:41;;;;;;;10.43;7.43;;;16.70;60.90;;;;;;5025520;28;20045;-73
2022/04/11 13:05:15;;;;;;;9.13;7.50;;;16.60;62.30;;;;;;5023872;28;20046;-73